createdAt,value
2023-03-07T00:02:31.678Z,16.27
2023-03-07T00:05:04.362Z,15.57
2023-03-07T00:07:37.872Z,17.30
2023-03-07T00:10:10.339Z,16.17
2023-03-07T00:12:41.613Z,15.97
2023-03-07T00:15:14.070Z,15.90
2023-03-07T00:17:47.283Z,16.53
2023-03-07T00:20:18.747Z,17.03
2023-03-07T00:22:51.848Z,15.67
2023-03-07T00:25:22.987Z,16.00
2023-03-07T00:27:54.336Z,16.27
2023-03-07T00:30:25.732Z,14.90
2023-03-07T00:32:58.390Z,15.17
2023-03-07T00:35:29.840Z,15.83
2023-03-07T00:38:02.545Z,16.07
2023-03-07T00:40:33.810Z,15.87
2023-03-07T00:43:05.208Z,16.03
2023-03-07T00:45:37.072Z,15.77
2023-03-07T00:48:08.565Z,14.97
2023-03-07T00:50:39.854Z,14.57
2023-03-07T00:53:12.706Z,14.67
2023-03-07T00:58:19.739Z,14.47
2023-03-07T01:00:50.976Z,14.10
2023-03-07T01:03:22.874Z,14.83
2023-03-07T01:05:54.363Z,13.43
2023-03-07T01:08:27.392Z,15.20
2023-03-07T01:11:05.412Z,14.87
2023-03-07T01:13:38.376Z,15.10
2023-03-07T01:16:14.375Z,15.50
2023-03-07T01:18:46.606Z,14.63
2023-03-07T01:21:19.930Z,13.93
2023-03-07T01:23:52.987Z,14.17
2023-03-07T01:26:25.756Z,14.40
2023-03-07T01:28:58.253Z,14.17
2023-03-07T01:31:31.180Z,15.30
2023-03-07T01:34:03.179Z,13.50
2023-03-07T01:36:35.728Z,13.87
2023-03-07T01:39:11.368Z,14.23
2023-03-07T01:41:42.431Z,13.97
2023-03-07T01:44:19.447Z,14.63
2023-03-07T01:46:53.800Z,13.60
2023-03-07T01:49:31.216Z,14.83
2023-03-07T01:52:06.673Z,14.67
2023-03-07T01:54:42.009Z,15.37
2023-03-07T01:57:13.724Z,14.33
2023-03-07T01:59:47.680Z,14.50
2023-03-07T02:02:20.688Z,15.17
2023-03-07T02:04:54.788Z,15.07
2023-03-07T02:07:28.887Z,15.17
2023-03-07T02:10:01.839Z,14.27
2023-03-07T02:12:33.375Z,14.20
2023-03-07T02:15:05.223Z,13.80
2023-03-07T02:17:37.155Z,14.20
2023-03-07T02:20:22.802Z,14.73
2023-03-07T02:22:54.527Z,14.93
2023-03-07T02:25:33.307Z,14.73
2023-03-07T02:28:06.321Z,14.53
2023-03-07T02:30:39.787Z,14.77
2023-03-07T02:33:11.006Z,13.90
2023-03-07T02:35:42.670Z,15.03
2023-03-07T02:38:14.394Z,14.30
2023-03-07T02:40:45.674Z,14.27
2023-03-07T02:43:18.684Z,14.23
2023-03-07T02:45:50.045Z,13.57
2023-03-07T02:48:21.562Z,14.37
2023-03-07T02:50:52.924Z,13.37
2023-03-07T02:53:25.080Z,13.23
2023-03-07T02:58:44.174Z,13.73
2023-03-07T03:01:15.695Z,13.43
2023-03-07T03:03:47.035Z,14.17
2023-03-07T03:06:18.486Z,13.57
2023-03-07T03:08:49.878Z,13.40
2023-03-07T03:11:21.306Z,12.90
2023-03-07T03:13:53.826Z,12.93
2023-03-07T03:16:25.027Z,12.17
2023-03-07T03:18:56.450Z,11.97
2023-03-07T03:21:27.692Z,12.63
2023-03-07T03:23:59.002Z,12.17
2023-03-07T03:26:30.543Z,11.17
2023-03-07T03:29:03.192Z,11.90
2023-03-07T03:31:35.937Z,12.70
2023-03-07T03:34:07.376Z,11.57
2023-03-07T03:36:39.124Z,12.70
2023-03-07T03:39:11.987Z,12.47
2023-03-07T03:41:43.779Z,12.33
2023-03-07T03:44:16.395Z,12.07
2023-03-07T03:46:47.746Z,11.47
2023-03-07T03:49:20.500Z,11.97
2023-03-07T03:51:51.693Z,11.87
2023-03-07T03:54:24.532Z,11.33
2023-03-07T03:56:56.922Z,11.37
2023-03-07T03:59:30.109Z,11.63
2023-03-07T04:02:02.054Z,11.13
2023-03-07T04:04:33.172Z,11.70
2023-03-07T04:07:06.095Z,11.87
2023-03-07T04:09:37.508Z,11.50
2023-03-07T04:12:09.152Z,11.23
2023-03-07T04:14:42.102Z,11.43
2023-03-07T04:17:13.422Z,10.53
2023-03-07T04:19:44.629Z,10.70
2023-03-07T04:22:15.545Z,9.97
2023-03-07T04:24:46.965Z,9.60
2023-03-07T04:27:18.687Z,9.83
2023-03-07T04:29:51.655Z,9.97
2023-03-07T04:32:23.133Z,9.27
2023-03-07T04:34:54.321Z,9.27
2023-03-07T04:37:25.591Z,9.33
2023-03-07T04:39:56.612Z,8.83
2023-03-07T04:42:27.864Z,9.23
2023-03-07T04:45:00.742Z,8.70
2023-03-07T04:47:32.208Z,8.97
2023-03-07T04:50:03.582Z,8.33
2023-03-07T04:52:34.534Z,8.83
2023-03-07T04:55:05.745Z,9.37
2023-03-07T04:57:36.836Z,9.67
2023-03-07T05:00:14.799Z,8.70
2023-03-07T05:02:47.702Z,8.80
2023-03-07T05:05:19.117Z,9.70
2023-03-07T05:07:50.547Z,10.37
2023-03-07T05:10:22.105Z,12.17
2023-03-07T05:12:53.456Z,11.67
2023-03-07T05:15:26.305Z,10.97
2023-03-07T05:17:57.522Z,10.77
2023-03-07T05:20:28.596Z,10.40
2023-03-07T05:22:59.759Z,9.60
2023-03-07T05:25:31.042Z,9.27
2023-03-07T05:28:02.408Z,9.30
2023-03-07T05:30:35.328Z,8.93
2023-03-07T05:33:06.867Z,8.37
2023-03-07T05:35:38.486Z,9.07
2023-03-07T05:38:09.641Z,8.93
2023-03-07T05:40:41.168Z,8.90
2023-03-07T05:43:12.385Z,9.30
2023-03-07T05:45:45.642Z,9.00
2023-03-07T05:48:16.893Z,9.90
2023-03-07T05:50:47.833Z,9.20
2023-03-07T05:53:19.340Z,9.10
2023-03-07T05:55:50.718Z,8.67
2023-03-07T05:58:22.424Z,9.37
2023-03-07T06:00:55.573Z,9.23
2023-03-07T06:03:26.899Z,9.73
2023-03-07T06:05:58.387Z,9.53
2023-03-07T06:08:30.005Z,9.60
2023-03-07T06:11:01.603Z,9.03
2023-03-07T06:13:33.208Z,9.50
2023-03-07T06:16:06.130Z,9.63
2023-03-07T06:18:37.397Z,9.30
2023-03-07T06:21:10.309Z,10.00
2023-03-07T06:23:41.657Z,9.80
2023-03-07T06:26:14.217Z,9.23
2023-03-07T06:28:46.390Z,9.13
2023-03-07T06:31:20.485Z,10.03
2023-03-07T06:33:52.201Z,12.10
2023-03-07T06:36:24.418Z,11.27
2023-03-07T06:38:55.461Z,11.07
2023-03-07T06:41:26.514Z,10.60
2023-03-07T06:43:57.684Z,10.53
2023-03-07T06:46:30.012Z,11.33
2023-03-07T06:49:03.515Z,10.67
2023-03-07T06:51:36.841Z,10.43
2023-03-07T06:54:09.275Z,10.27
2023-03-07T06:56:39.538Z,9.90
2023-03-07T06:59:11.998Z,9.57
2023-03-07T07:01:44.811Z,10.40
2023-03-07T07:04:16.332Z,10.67
2023-03-07T07:06:47.630Z,10.10
2023-03-07T07:09:19.051Z,9.63
2023-03-07T07:11:50.599Z,11.20
2023-03-07T07:14:23.009Z,10.33
2023-03-07T07:16:55.474Z,10.60
2023-03-07T07:19:27.542Z,10.37
2023-03-07T07:21:59.229Z,10.60
2023-03-07T07:24:30.861Z,10.67
2023-03-07T07:27:02.314Z,10.60
2023-03-07T07:29:33.362Z,10.90
2023-03-07T07:32:06.710Z,10.33
2023-03-07T07:34:37.905Z,10.63
2023-03-07T07:37:10.090Z,10.50
2023-03-07T07:39:44.646Z,11.03
2023-03-07T07:42:16.309Z,11.13
2023-03-07T07:44:49.266Z,11.77
2023-03-07T07:47:22.733Z,12.03
2023-03-07T07:49:54.220Z,13.13
2023-03-07T07:52:25.355Z,12.10
2023-03-07T07:54:56.750Z,13.10
2023-03-07T07:57:28.376Z,13.00
2023-03-07T07:59:59.725Z,12.93
2023-03-07T08:02:32.430Z,13.10
2023-03-07T08:05:03.490Z,12.77
2023-03-07T08:07:35.110Z,13.00
2023-03-07T08:10:07.193Z,12.90
2023-03-07T08:12:39.589Z,13.33
2023-03-07T08:15:11.652Z,12.80
2023-03-07T08:17:45.151Z,13.27
2023-03-07T08:20:17.000Z,12.53
2023-03-07T08:22:48.785Z,12.07
2023-03-07T08:25:23.552Z,13.20
2023-03-07T08:27:56.094Z,12.27
2023-03-07T08:30:31.938Z,12.50
2023-03-07T08:33:07.901Z,11.83
2023-03-07T08:35:41.024Z,12.57
2023-03-07T08:38:12.489Z,14.90
2023-03-07T08:40:43.751Z,13.63
2023-03-07T08:43:15.237Z,12.77
2023-03-07T08:45:46.486Z,13.67
2023-03-07T08:48:19.075Z,12.60
2023-03-07T08:50:50.869Z,12.57
2023-03-07T08:53:23.272Z,12.60
2023-03-07T08:55:55.280Z,12.77
2023-03-07T08:58:27.066Z,12.13
2023-03-07T09:00:59.295Z,12.60
2023-03-07T09:03:31.898Z,11.63
2023-03-07T09:06:03.624Z,12.50
2023-03-07T09:08:35.582Z,12.20
2023-03-07T09:11:06.722Z,11.50
2023-03-07T09:13:51.057Z,11.30
2023-03-07T09:16:23.410Z,10.43
2023-03-07T09:18:56.123Z,11.17
2023-03-07T09:21:27.214Z,11.00
2023-03-07T09:23:58.777Z,11.50
2023-03-07T09:26:30.190Z,11.43
2023-03-07T09:29:01.357Z,11.80
2023-03-07T09:31:32.523Z,11.77
2023-03-07T09:34:06.540Z,11.37
2023-03-07T09:36:38.392Z,12.77
2023-03-07T09:39:15.315Z,12.10
2023-03-07T09:41:57.572Z,11.87
2023-03-07T09:44:37.684Z,11.57
2023-03-07T09:47:20.763Z,12.53
2023-03-07T09:49:54.770Z,11.57
2023-03-07T09:52:28.164Z,11.37
2023-03-07T09:55:04.718Z,11.77
2023-03-07T09:57:37.610Z,11.50
2023-03-07T10:00:18.470Z,11.87
2023-03-07T10:02:52.624Z,11.70
2023-03-07T10:05:32.390Z,12.47
2023-03-07T10:08:06.178Z,11.70
2023-03-07T10:10:41.117Z,11.27
2023-03-07T10:13:22.992Z,12.03
2023-03-07T10:15:56.276Z,12.67
2023-03-07T10:18:44.978Z,12.90
2023-03-07T10:21:22.422Z,11.83
2023-03-07T10:24:12.671Z,11.23
2023-03-07T10:26:45.694Z,12.63
2023-03-07T10:29:18.466Z,12.43
2023-03-07T10:31:51.976Z,12.13
2023-03-07T10:34:28.378Z,13.57
2023-03-07T10:37:09.034Z,14.03
2023-03-07T10:39:44.840Z,15.50
2023-03-07T10:42:17.153Z,15.80
2023-03-07T10:44:50.003Z,15.90
2023-03-07T10:47:24.530Z,15.43
2023-03-07T10:49:58.980Z,15.20
2023-03-07T10:52:37.561Z,17.10
2023-03-07T10:55:41.250Z,17.47
2023-03-07T10:58:24.759Z,17.40
2023-03-07T11:01:16.198Z,18.13
2023-03-07T11:03:54.263Z,18.90
2023-03-07T11:06:37.504Z,20.90
2023-03-07T11:09:22.873Z,22.13
2023-03-07T11:11:57.709Z,21.57
2023-03-07T11:14:32.467Z,21.47
2023-03-07T11:17:05.392Z,22.17
2023-03-07T11:19:43.115Z,23.13
2023-03-07T11:22:27.110Z,20.70
2023-03-07T11:25:04.914Z,22.23
2023-03-07T11:27:41.881Z,22.10
2023-03-07T11:30:26.180Z,23.47
2023-03-07T11:33:04.379Z,23.23
2023-03-07T11:35:50.252Z,24.57
2023-03-07T11:38:30.771Z,25.47
2023-03-07T11:41:08.774Z,26.63
2023-03-07T11:43:47.519Z,25.67
2023-03-07T11:46:27.263Z,26.20
2023-03-07T11:49:07.841Z,24.83
2023-03-07T11:51:47.625Z,24.97
2023-03-07T11:54:25.399Z,22.90
2023-03-07T11:57:00.375Z,22.73
2023-03-07T12:00:14.944Z,20.93
2023-03-07T12:03:07.227Z,19.07
2023-03-07T12:05:47.789Z,21.97
2023-03-07T12:08:51.027Z,20.73
2023-03-07T12:11:35.049Z,20.83
2023-03-07T12:14:15.632Z,19.70
2023-03-07T12:16:53.041Z,18.63
2023-03-07T12:19:48.357Z,19.70
2023-03-07T12:22:31.175Z,18.03
2023-03-07T12:25:25.899Z,16.67
2023-03-07T12:28:04.661Z,13.43
2023-03-07T12:30:45.237Z,13.60
2023-03-07T12:33:22.585Z,12.33
2023-03-07T12:35:57.383Z,13.90
2023-03-07T12:38:39.562Z,14.60
2023-03-07T12:41:22.829Z,13.80
2023-03-07T12:43:59.036Z,14.23
2023-03-07T12:46:39.846Z,13.60
2023-03-07T12:49:18.496Z,12.07
2023-03-07T12:51:51.259Z,12.73
2023-03-07T12:54:26.947Z,12.07
2023-03-07T12:59:45.197Z,13.30
2023-03-07T13:02:20.554Z,12.50
2023-03-07T13:04:51.866Z,13.10
2023-03-07T13:07:25.956Z,14.00
2023-03-07T13:09:58.404Z,14.33
2023-03-07T13:12:37.735Z,12.17
2023-03-07T13:15:10.190Z,12.10
2023-03-07T13:18:06.629Z,11.10
2023-03-07T13:20:44.469Z,10.93
2023-03-07T13:23:34.563Z,10.23
2023-03-07T13:26:28.173Z,10.33
2023-03-07T13:28:59.350Z,11.40
2023-03-07T13:31:46.649Z,10.70
2023-03-07T13:34:52.527Z,10.83
2023-03-07T13:38:10.614Z,10.87
2023-03-07T13:41:01.447Z,10.70
2023-03-07T13:44:07.778Z,10.90
2023-03-07T13:47:02.330Z,9.93
2023-03-07T13:49:44.639Z,8.80
2023-03-07T13:52:52.107Z,8.30
2023-03-07T13:55:45.932Z,6.50
2023-03-07T13:58:24.885Z,6.53
2023-03-07T14:00:58.933Z,5.57
2023-03-07T14:03:33.248Z,5.63
2023-03-07T14:06:11.986Z,5.47
2023-03-07T14:08:43.290Z,4.73
2023-03-07T14:11:21.849Z,4.40
2023-03-07T14:14:18.347Z,4.13
2023-03-07T14:16:57.479Z,4.03
2023-03-07T14:19:42.344Z,4.60
2023-03-07T14:22:21.666Z,4.57
2023-03-07T14:25:08.628Z,4.67
2023-03-07T14:27:54.098Z,4.50
2023-03-07T14:30:26.871Z,4.63
2023-03-07T14:32:58.179Z,4.70
2023-03-07T14:35:43.827Z,5.10
2023-03-07T14:38:21.293Z,4.87
2023-03-07T14:41:06.486Z,4.93
2023-03-07T14:43:48.189Z,4.33
2023-03-07T14:46:27.317Z,5.03
2023-03-07T14:49:10.342Z,5.30
2023-03-07T14:51:44.622Z,4.73
2023-03-07T14:54:18.841Z,4.50
2023-03-07T14:56:59.610Z,4.30
2023-03-07T14:59:32.802Z,4.93
2023-03-07T15:02:06.522Z,4.03
2023-03-07T15:04:38.102Z,4.57
2023-03-07T15:07:12.374Z,4.47
2023-03-07T15:09:43.947Z,4.23
2023-03-07T15:12:17.200Z,4.83
2023-03-07T15:14:51.699Z,4.33
2023-03-07T15:17:27.009Z,4.67
2023-03-07T15:20:01.076Z,3.87
2023-03-07T15:22:33.763Z,4.30
2023-03-07T15:25:05.411Z,4.23
2023-03-07T15:27:36.655Z,4.23
2023-03-07T15:30:25.362Z,4.40
2023-03-07T15:33:07.624Z,3.80
2023-03-07T15:35:38.914Z,4.00
2023-03-07T15:38:20.393Z,3.97
2023-03-07T15:40:52.049Z,4.30
2023-03-07T15:43:38.374Z,4.10
2023-03-07T15:46:16.702Z,4.73
2023-03-07T15:48:51.737Z,4.20
2023-03-07T15:51:25.399Z,4.20
2023-03-07T15:53:59.585Z,3.80
2023-03-07T15:56:35.501Z,4.13
2023-03-07T15:59:11.034Z,4.00
2023-03-07T16:01:44.019Z,4.33
2023-03-07T16:04:33.047Z,4.40
2023-03-07T16:07:04.517Z,4.10
2023-03-07T16:09:36.180Z,3.70
2023-03-07T16:12:12.929Z,4.13
2023-03-07T16:14:44.249Z,4.10
2023-03-07T16:17:20.794Z,3.90
2023-03-07T16:19:52.611Z,3.63
2023-03-07T16:22:25.345Z,3.80
2023-03-07T16:24:56.640Z,4.20
2023-03-07T16:27:28.204Z,4.13
2023-03-07T16:30:01.604Z,4.00
2023-03-07T16:32:34.020Z,3.77
2023-03-07T16:35:05.433Z,4.40
2023-03-07T16:37:36.480Z,4.73
2023-03-07T16:40:09.369Z,4.20
2023-03-07T16:42:40.497Z,5.30
2023-03-07T16:45:22.406Z,4.87
2023-03-07T16:47:57.472Z,5.33
2023-03-07T16:50:31.665Z,6.40
2023-03-07T16:53:02.490Z,6.83
2023-03-07T16:55:35.270Z,7.37
2023-03-07T16:58:08.183Z,6.80
2023-03-07T17:00:39.727Z,7.10
2023-03-07T17:03:13.554Z,6.83
2023-03-07T17:05:44.981Z,6.40
2023-03-07T17:08:16.470Z,6.03
2023-03-07T17:10:47.913Z,5.27
2023-03-07T17:13:20.317Z,5.10
2023-03-07T17:15:54.723Z,4.70
2023-03-07T17:18:30.546Z,4.70
2023-03-07T17:21:02.073Z,4.67
2023-03-07T17:23:33.455Z,4.43
2023-03-07T17:26:06.357Z,4.80
2023-03-07T17:28:37.745Z,4.60
2023-03-07T17:31:09.635Z,5.27
2023-03-07T17:33:42.097Z,4.37
2023-03-07T17:36:15.127Z,4.63
2023-03-07T17:38:46.936Z,4.50
2023-03-07T17:41:18.750Z,5.23
2023-03-07T17:43:50.276Z,5.00
2023-03-07T17:46:21.705Z,5.23
2023-03-07T17:48:56.898Z,5.50
2023-03-07T17:51:31.129Z,5.17
2023-03-07T17:54:02.443Z,5.77
2023-03-07T17:56:34.140Z,5.60
2023-03-07T17:59:05.669Z,8.73
2023-03-07T18:01:38.575Z,8.60
2023-03-07T18:04:11.234Z,8.40
2023-03-07T18:06:42.525Z,8.33
2023-03-07T18:09:16.088Z,8.43
2023-03-07T18:11:47.394Z,9.13
2023-03-07T18:14:18.901Z,9.10
2023-03-07T18:16:50.770Z,8.03
2023-03-07T18:19:26.988Z,8.27
2023-03-07T18:21:58.908Z,7.40
2023-03-07T18:24:31.966Z,7.20
2023-03-07T18:27:04.346Z,6.40
2023-03-07T18:29:35.278Z,6.07
2023-03-07T18:32:06.335Z,6.40
2023-03-07T18:34:39.378Z,6.60
2023-03-07T18:37:12.460Z,6.70
2023-03-07T18:39:43.605Z,7.10
2023-03-07T18:42:15.608Z,7.23
2023-03-07T18:44:46.815Z,7.20
2023-03-07T18:47:18.643Z,7.20
2023-03-07T18:49:53.401Z,7.03
2023-03-07T18:52:24.493Z,7.07
2023-03-07T18:54:55.648Z,7.40
2023-03-07T18:57:48.035Z,7.53
2023-03-07T19:00:19.875Z,8.43
2023-03-07T19:02:51.059Z,8.27
2023-03-07T19:05:23.515Z,8.07
2023-03-07T19:07:54.467Z,8.57
2023-03-07T19:10:26.239Z,9.87
2023-03-07T19:12:57.325Z,9.87
2023-03-07T19:15:28.575Z,10.53
2023-03-07T19:17:59.819Z,10.67
2023-03-07T19:20:32.645Z,10.77
2023-03-07T19:23:03.909Z,10.43
2023-03-07T19:25:38.039Z,11.43
2023-03-07T19:28:09.454Z,10.50
2023-03-07T19:30:41.083Z,10.23
2023-03-07T19:33:12.374Z,9.40
2023-03-07T19:35:45.285Z,9.37
2023-03-07T19:38:16.700Z,9.50
2023-03-07T19:40:51.164Z,9.77
2023-03-07T19:43:22.630Z,10.77
2023-03-07T19:45:54.524Z,11.13
2023-03-07T19:48:26.611Z,11.53
2023-03-07T19:50:59.429Z,11.83
2023-03-07T19:53:31.991Z,12.73
2023-03-07T19:56:12.765Z,13.40
2023-03-07T19:58:44.369Z,13.47
2023-03-07T20:01:18.098Z,13.63
2023-03-07T20:03:51.814Z,13.30
2023-03-07T20:06:27.237Z,11.53
2023-03-07T20:08:59.322Z,12.60
2023-03-07T20:11:32.776Z,10.83
2023-03-07T20:14:05.840Z,11.47
2023-03-07T20:16:38.290Z,11.53
2023-03-07T20:19:12.141Z,11.57
2023-03-07T20:21:50.788Z,13.30
2023-03-07T20:24:22.435Z,13.30
2023-03-07T20:26:53.782Z,13.93
2023-03-07T20:29:25.430Z,13.37
2023-03-07T20:31:56.734Z,13.27
2023-03-07T20:34:28.053Z,13.80
2023-03-07T20:37:00.889Z,13.40
2023-03-07T20:39:32.217Z,13.70
2023-03-07T20:42:03.981Z,13.07
2023-03-07T20:44:35.608Z,13.50
2023-03-07T20:47:06.753Z,13.20
2023-03-07T20:49:38.164Z,13.67
2023-03-07T20:52:11.157Z,14.37
2023-03-07T20:54:42.841Z,13.50
2023-03-07T20:57:14.407Z,13.37
2023-03-07T20:59:45.582Z,14.53
2023-03-07T21:02:17.252Z,13.70
2023-03-07T21:04:49.902Z,14.33
2023-03-07T21:07:22.646Z,15.00
2023-03-07T21:09:53.797Z,14.73
2023-03-07T21:12:25.042Z,16.03
2023-03-07T21:14:56.928Z,14.83
2023-03-07T21:17:29.019Z,14.87
2023-03-07T21:20:00.972Z,14.13
2023-03-07T21:22:33.402Z,14.47
2023-03-07T21:25:06.444Z,14.57
2023-03-07T21:27:37.721Z,14.87
2023-03-07T21:30:11.214Z,14.60
2023-03-07T21:32:42.675Z,13.77
2023-03-07T21:35:13.840Z,16.10
2023-03-07T21:37:46.546Z,14.97
2023-03-07T21:40:18.072Z,15.90
2023-03-07T21:42:49.193Z,15.90
2023-03-07T21:45:21.002Z,17.43
2023-03-07T21:47:54.361Z,16.23
2023-03-07T21:50:25.996Z,16.57
2023-03-07T21:52:58.503Z,15.33
2023-03-07T21:55:30.049Z,14.83
2023-03-07T21:58:01.712Z,15.77
2023-03-07T22:00:33.362Z,16.00
2023-03-07T22:03:04.515Z,14.90
2023-03-07T22:05:35.767Z,14.80
2023-03-07T22:08:08.885Z,15.33
2023-03-07T22:10:40.329Z,14.80
2023-03-07T22:13:11.982Z,15.30
2023-03-07T22:15:43.173Z,14.80
2023-03-07T22:18:14.830Z,15.67
2023-03-07T22:20:45.947Z,15.93
2023-03-07T22:23:18.819Z,15.37
2023-03-07T22:25:50.544Z,14.73
2023-03-07T22:28:21.877Z,14.93
2023-03-07T22:30:53.414Z,15.33
2023-03-07T22:33:24.519Z,16.00
2023-03-07T22:35:59.247Z,16.23
2023-03-07T22:38:31.979Z,15.27
2023-03-07T22:41:07.063Z,15.37
2023-03-07T22:43:40.184Z,15.53
2023-03-07T22:46:11.805Z,15.67
2023-03-07T22:48:43.619Z,15.10
2023-03-07T22:51:15.953Z,16.47
2023-03-07T22:53:48.626Z,16.37
2023-03-07T22:56:21.278Z,16.07
2023-03-07T22:58:52.807Z,17.03
2023-03-07T23:01:25.974Z,17.30
2023-03-07T23:03:58.870Z,16.40
2023-03-07T23:06:32.074Z,16.30
2023-03-07T23:09:05.917Z,15.47
2023-03-07T23:11:38.217Z,15.97
2023-03-07T23:14:10.582Z,16.53
2023-03-07T23:16:43.226Z,16.03
2023-03-07T23:19:14.939Z,16.50
2023-03-07T23:21:46.444Z,15.00
2023-03-07T23:24:19.077Z,15.53
2023-03-07T23:26:50.214Z,14.77
2023-03-07T23:29:21.583Z,15.63
2023-03-07T23:31:52.794Z,15.70
2023-03-07T23:34:24.471Z,15.87
2023-03-07T23:36:55.908Z,15.67
2023-03-07T23:39:28.690Z,17.03
2023-03-07T23:41:59.802Z,16.33
2023-03-07T23:44:31.466Z,16.57
2023-03-07T23:47:02.757Z,16.57
2023-03-07T23:49:33.905Z,17.80
2023-03-07T23:52:05.509Z,17.60
2023-03-07T23:54:38.261Z,17.67
2023-03-07T23:57:09.954Z,18.60
2023-03-07T23:59:41.325Z,16.80
